sensor_id;sensor_type;location;lat;lon;timestamp;pressure;altitude;pressure_sealevel;temperature;humidity
66880;BME280;72009;51.392;10.234;2024-01-30T00:00:12;99488.13;;;2.92;100.00
66880;BME280;72009;51.392;10.234;2024-01-30T00:00:33;99488.94;;;2.92;100.00
66880;BME280;72009;51.392;10.234;2024-01-30T00:00:53;99491.66;;;2.92;100.00
66880;BME280;72009;51.392;10.234;2024-01-30T00:01:13;99481.88;;;2.91;100.00
66880;BME280;72009;51.392;10.234;2024-01-30T00:01:33;99487.31;;;2.91;100.00
66880;BME280;72009;51.392;10.234;2024-01-30T00:01:54;99487.31;;;2.91;100.00
66880;BME280;72009;51.392;10.234;2024-01-30T00:02:14;99480.22;;;2.90;100.00
66880;BME280;72009;51.392;10.234;2024-01-30T00:02:34;99489.19;;;2.91;100.00
66880;BME280;72009;51.392;10.234;2024-01-30T00:02:55;99481.25;;;2.89;100.00
66880;BME280;72009;51.392;10.234;2024-01-30T00:03:15;99483.16;;;2.89;100.00
66880;BME280;72009;51.392;10.234;2024-01-30T00:03:35;99490.25;;;2.90;100.00
66880;BME280;72009;51.392;10.234;2024-01-30T00:03:55;99488.59;;;2.89;100.00
66880;BME280;72009;51.392;10.234;2024-01-30T00:04:16;99486.69;;;2.89;100.00
66880;BME280;72009;51.392;10.234;2024-01-30T00:04:36;99487.53;;;2.90;100.00
66880;BME280;72009;51.392;10.234;2024-01-30T00:04:56;99483.97;;;2.89;100.00
66880;BME280;72009;51.392;10.234;2024-01-30T00:05:16;99488.38;;;2.90;100.00
66880;BME280;72009;51.392;10.234;2024-01-30T00:05:37;99485.66;;;2.90;100.00
66880;BME280;72009;51.392;10.234;2024-01-30T00:05:57;99486.47;;;2.91;100.00
66880;BME280;72009;51.392;10.234;2024-01-30T00:06:20;99481.03;;;2.91;100.00
66880;BME280;72009;51.392;10.234;2024-01-30T00:06:41;99488.94;;;2.92;100.00
66880;BME280;72009;51.392;10.234;2024-01-30T00:07:01;99483.53;;;2.92;100.00
66880;BME280;72009;51.392;10.234;2024-01-30T00:07:21;99489.81;;;2.93;100.00
66880;BME280;72009;51.392;10.234;2024-01-30T00:07:43;99487.91;;;2.93;100.00
66880;BME280;72009;51.392;10.234;2024-01-30T00:08:03;99489.81;;;2.93;100.00
66880;BME280;72009;51.392;10.234;2024-01-30T00:08:23;99482.47;;;2.93;100.00
66880;BME280;72009;51.392;10.234;2024-01-30T00:08:44;99483.53;;;2.92;100.00
66880;BME280;72009;51.392;10.234;2024-01-30T00:09:04;99479.97;;;2.92;100.00
66880;BME280;72009;51.392;10.234;2024-01-30T00:09:24;99485.19;;;2.93;100.00
66880;BME280;72009;51.392;10.234;2024-01-30T00:09:46;99488.72;;;2.94;100.00
66880;BME280;72009;51.392;10.234;2024-01-30T00:10:07;99484.38;;;2.93;100.00
66880;BME280;72009;51.392;10.234;2024-01-30T00:10:27;99488.72;;;2.94;100.00
66880;BME280;72009;51.392;10.234;2024-01-30T00:10:47;99487.91;;;2.93;100.00
66880;BME280;72009;51.392;10.234;2024-01-30T00:11:08;99481.66;;;2.93;100.00
66880;BME280;72009;51.392;10.234;2024-01-30T00:11:28;99485.19;;;2.93;100.00
66880;BME280;72009;51.392;10.234;2024-01-30T00:11:48;99487.91;;;2.93;100.00
66880;BME280;72009;51.392;10.234;2024-01-30T00:12:09;99487.09;;;2.93;100.00
66880;BME280;72009;51.392;10.234;2024-01-30T00:12:29;99489.81;;;2.93;100.00
66880;BME280;72009;51.392;10.234;2024-01-30T00:12:49;99484.59;;;2.91;100.00
66880;BME280;72009;51.392;10.234;2024-01-30T00:13:09;99486.47;;;2.91;100.00
66880;BME280;72009;51.392;10.234;2024-01-30T00:13:30;99481.25;;;2.89;100.00
66880;BME280;72009;51.392;10.234;2024-01-30T00:13:50;99482.94;;;2.90;100.00
66880;BME280;72009;51.392;10.234;2024-01-30T00:14:10;99489.41;;;2.89;100.00
66880;BME280;72009;51.392;10.234;2024-01-30T00:14:30;99483.16;;;2.89;100.00
66880;BME280;72009;51.392;10.234;2024-01-30T00:14:51;99480.66;;;2.87;100.00
66880;BME280;72009;51.392;10.234;2024-01-30T00:15:11;99479.00;;;2.86;100.00
66880;BME280;72009;51.392;10.234;2024-01-30T00:15:31;99480.06;;;2.85;100.00
66880;BME280;72009;51.392;10.234;2024-01-30T00:15:51;99483.84;;;2.84;100.00
66880;BME280;72009;51.392;10.234;2024-01-30T00:16:22;99482.16;;;2.83;100.00
66880;BME280;72009;51.392;10.234;2024-01-30T00:16:43;99484.06;;;2.82;100.00
66880;BME280;72009;51.392;10.234;2024-01-30T00:17:03;99485.09;;;2.81;100.00
66880;BME280;72009;51.392;10.234;2024-01-30T00:17:23;99480.72;;;2.80;100.00
66880;BME280;72009;51.392;10.234;2024-01-30T00:17:44;99481.56;;;2.81;100.00
66880;BME280;72009;51.392;10.234;2024-01-30T00:18:04;99482.38;;;2.81;100.00
66880;BME280;72009;51.392;10.234;2024-01-30T00:18:24;99469.84;;;2.80;100.00
66880;BME280;72009;51.392;10.234;2024-01-30T00:18:45;99485.09;;;2.81;100.00
66880;BME280;72009;51.392;10.234;2024-01-30T00:19:05;99480.28;;;2.83;100.00
66880;BME280;72009;51.392;10.234;2024-01-30T00:19:25;99471.53;;;2.81;100.00
66880;BME280;72009;51.392;10.234;2024-01-30T00:19:46;99472.34;;;2.82;100.00
66880;BME280;72009;51.392;10.234;2024-01-30T00:20:07;99473.19;;;2.82;100.00
66880;BME280;72009;51.392;10.234;2024-01-30T00:20:27;99473.19;;;2.82;100.00
66880;BME280;72009;51.392;10.234;2024-01-30T00:20:47;99476.72;;;2.83;100.00
66880;BME280;72009;51.392;10.234;2024-01-30T00:21:07;99477.78;;;2.82;100.00
66880;BME280;72009;51.392;10.234;2024-01-30T00:21:28;99480.28;;;2.83;100.00
66880;BME280;72009;51.392;10.234;2024-01-30T00:21:48;99473.78;;;2.84;100.00
66880;BME280;72009;51.392;10.234;2024-01-30T00:22:08;99475.91;;;2.82;100.00
66880;BME280;72009;51.392;10.234;2024-01-30T00:22:28;99475.06;;;2.82;100.00
66880;BME280;72009;51.392;10.234;2024-01-30T00:22:49;99471.53;;;2.81;100.00
66880;BME280;72009;51.392;10.234;2024-01-30T00:23:09;99469.63;;;2.82;100.00
66880;BME280;72009;51.392;10.234;2024-01-30T00:23:29;99472.56;;;2.80;100.00
66880;BME280;72009;51.392;10.234;2024-01-30T00:23:50;99475.28;;;2.80;100.00
66880;BME280;72009;51.392;10.234;2024-01-30T00:24:10;99469.84;;;2.80;100.00
66880;BME280;72009;51.392;10.234;2024-01-30T00:24:30;99484.28;;;2.81;100.00
66880;BME280;72009;51.392;10.234;2024-01-30T00:24:50;99474.47;;;2.80;100.00
66880;BME280;72009;51.392;10.234;2024-01-30T00:25:11;99472.78;;;2.79;100.00
66880;BME280;72009;51.392;10.234;2024-01-30T00:25:31;99472.78;;;2.79;100.00
66880;BME280;72009;51.392;10.234;2024-01-30T00:25:51;99470.06;;;2.79;100.00
66880;BME280;72009;51.392;10.234;2024-01-30T00:26:12;99475.72;;;2.77;100.00
66880;BME280;72009;51.392;10.234;2024-01-30T00:26:33;99476.59;;;2.78;100.00
66880;BME280;72009;51.392;10.234;2024-01-30T00:26:53;99478.44;;;2.77;100.00
66880;BME280;72009;51.392;10.234;2024-01-30T00:27:13;99480.34;;;2.77;100.00
66880;BME280;72009;51.392;10.234;2024-01-30T00:27:34;99482.25;;;2.76;100.00
66880;BME280;72009;51.392;10.234;2024-01-30T00:27:54;99473.25;;;2.76;100.00
66880;BME280;72009;51.392;10.234;2024-01-30T00:28:14;99481.41;;;2.76;100.00
66880;BME280;72009;51.392;10.234;2024-01-30T00:28:35;99473.25;;;2.76;100.00
66880;BME280;72009;51.392;10.234;2024-01-30T00:28:56;99479.53;;;2.76;100.00
66880;BME280;72009;51.392;10.234;2024-01-30T00:29:17;99475.97;;;2.76;100.00
66880;BME280;72009;51.392;10.234;2024-01-30T00:29:37;99475.97;;;2.76;100.00
66880;BME280;72009;51.392;10.234;2024-01-30T00:29:57;99481.41;;;2.76;100.00
66880;BME280;72009;51.392;10.234;2024-01-30T00:30:18;99477.84;;;2.75;100.00
66880;BME280;72009;51.392;10.234;2024-01-30T00:30:38;99482.69;;;2.73;100.00
66880;BME280;72009;51.392;10.234;2024-01-30T00:30:58;99484.13;;;2.76;100.00
66880;BME280;72009;51.392;10.234;2024-01-30T00:31:18;99485.41;;;2.73;100.00
66880;BME280;72009;51.392;10.234;2024-01-30T00:31:39;99477.50;;;2.72;100.00
66880;BME280;72009;51.392;10.234;2024-01-30T00:31:59;99478.31;;;2.72;100.00
66880;BME280;72009;51.392;10.234;2024-01-30T00:32:20;99478.53;;;2.71;100.00
66880;BME280;72009;51.392;10.234;2024-01-30T00:32:40;99481.25;;;2.71;100.00
66880;BME280;72009;51.392;10.234;2024-01-30T00:33:00;99475.81;;;2.71;100.00
66880;BME280;72009;51.392;10.234;2024-01-30T00:33:20;99476.63;;;2.71;100.00
66880;BME280;72009;51.392;10.234;2024-01-30T00:33:41;99482.06;;;2.71;100.00
66880;BME280;72009;51.392;10.234;2024-01-30T00:34:02;99475.81;;;2.71;100.00
66880;BME280;72009;51.392;10.234;2024-01-30T00:34:22;99479.34;;;2.71;100.00
66880;BME280;72009;51.392;10.234;2024-01-30T00:34:42;99477.50;;;2.72;100.00
66880;BME280;72009;51.392;10.234;2024-01-30T00:35:03;99481.25;;;2.71;100.00
66880;BME280;72009;51.392;10.234;2024-01-30T00:35:23;99478.31;;;2.72;100.00
66880;BME280;72009;51.392;10.234;2024-01-30T00:35:43;99473.94;;;2.71;100.00
66880;BME280;72009;51.392;10.234;2024-01-30T00:36:05;99473.94;;;2.71;100.00
66880;BME280;72009;51.392;10.234;2024-01-30T00:36:25;99480.22;;;2.72;100.00
66880;BME280;72009;51.392;10.234;2024-01-30T00:36:46;99475.59;;;2.72;100.00
66880;BME280;72009;51.392;10.234;2024-01-30T00:37:06;99470.97;;;2.73;100.00
66880;BME280;72009;51.392;10.234;2024-01-30T00:37:26;99478.91;;;2.74;100.00
66880;BME280;72009;51.392;10.234;2024-01-30T00:37:46;99474.56;;;2.73;100.00
66880;BME280;72009;51.392;10.234;2024-01-30T00:38:07;99483.53;;;2.74;100.00
66880;BME280;72009;51.392;10.234;2024-01-30T00:38:27;99476.41;;;2.73;100.00
66880;BME280;72009;51.392;10.234;2024-01-30T00:38:47;99479.97;;;2.73;100.00
66880;BME280;72009;51.392;10.234;2024-01-30T00:39:07;99479.34;;;2.71;100.00
66880;BME280;72009;51.392;10.234;2024-01-30T00:39:28;99478.53;;;2.71;100.00
66880;BME280;72009;51.392;10.234;2024-01-30T00:39:48;99480.41;;;2.70;100.00
66880;BME280;72009;51.392;10.234;2024-01-30T00:40:09;99481.47;;;2.69;100.00
66880;BME280;72009;51.392;10.234;2024-01-30T00:40:29;99477.09;;;2.68;100.00
66880;BME280;72009;51.392;10.234;2024-01-30T00:40:49;99481.72;;;2.67;100.00
66880;BME280;72009;51.392;10.234;2024-01-30T00:41:10;99474.59;;;2.66;100.00
66880;BME280;72009;51.392;10.234;2024-01-30T00:41:30;99481.09;;;2.65;100.00
66880;BME280;72009;51.392;10.234;2024-01-30T00:41:50;99487.59;;;2.64;100.00
66880;BME280;72009;51.392;10.234;2024-01-30T00:42:11;99484.88;;;2.64;100.00
66880;BME280;72009;51.392;10.234;2024-01-30T00:42:31;99475.06;;;2.63;100.00
66880;BME280;72009;51.392;10.234;2024-01-30T00:42:52;99473.38;;;2.62;100.00
66880;BME280;72009;51.392;10.234;2024-01-30T00:43:12;99478.59;;;2.64;100.00
66880;BME280;72009;51.392;10.234;2024-01-30T00:43:32;99477.78;;;2.63;100.00
66880;BME280;72009;51.392;10.234;2024-01-30T00:43:52;99475.06;;;2.63;100.00
66880;BME280;72009;51.392;10.234;2024-01-30T00:44:13;99472.56;;;2.62;100.00
66880;BME280;72009;51.392;10.234;2024-01-30T00:44:36;99483.44;;;2.62;100.00
66880;BME280;72009;51.392;10.234;2024-01-30T00:44:57;99478.81;;;2.62;100.00
66880;BME280;72009;51.392;10.234;2024-01-30T00:45:17;99478.81;;;2.62;100.00
66880;BME280;72009;51.392;10.234;2024-01-30T00:45:38;99483.22;;;2.63;100.00
66880;BME280;72009;51.392;10.234;2024-01-30T00:45:58;99479.88;;;2.61;100.00
66880;BME280;72009;51.392;10.234;2024-01-30T00:46:19;99476.94;;;2.63;100.00
66880;BME280;72009;51.392;10.234;2024-01-30T00:46:39;99474.00;;;2.64;100.00
66880;BME280;72009;51.392;10.234;2024-01-30T00:46:59;99481.31;;;2.64;100.00
66880;BME280;72009;51.392;10.234;2024-01-30T00:47:20;99471.28;;;2.64;100.00
66880;BME280;72009;51.392;10.234;2024-01-30T00:47:40;99471.28;;;2.64;100.00
66880;BME280;72009;51.392;10.234;2024-01-30T00:48:00;99480.84;;;2.67;100.00
66880;BME280;72009;51.392;10.234;2024-01-30T00:48:20;99479.00;;;2.67;100.00
66880;BME280;72009;51.392;10.234;2024-01-30T00:48:41;99471.88;;;2.66;100.00
66880;BME280;72009;51.392;10.234;2024-01-30T00:49:01;99478.13;;;2.67;100.00
66880;BME280;72009;51.392;10.234;2024-01-30T00:49:21;99466.22;;;2.68;100.00
66880;BME280;72009;51.392;10.234;2024-01-30T00:49:41;99468.13;;;2.67;100.00
66880;BME280;72009;51.392;10.234;2024-01-30T00:50:02;99473.34;;;2.69;100.00
66880;BME280;72009;51.392;10.234;2024-01-30T00:50:22;99476.88;;;2.69;100.00
66880;BME280;72009;51.392;10.234;2024-01-30T00:50:43;99473.34;;;2.69;100.00
66880;BME280;72009;51.392;10.234;2024-01-30T00:51:03;99476.88;;;2.69;100.00
66880;BME280;72009;51.392;10.234;2024-01-30T00:51:23;99475.19;;;2.68;100.00
66880;BME280;72009;51.392;10.234;2024-01-30T00:51:44;99477.09;;;2.68;100.00
66880;BME280;72009;51.392;10.234;2024-01-30T00:52:04;99470.00;;;2.67;100.00
66880;BME280;72009;51.392;10.234;2024-01-30T00:52:24;99476.28;;;2.67;100.00
66880;BME280;72009;51.392;10.234;2024-01-30T00:52:45;99481.72;;;2.67;100.00
66880;BME280;72009;51.392;10.234;2024-01-30T00:53:05;99472.72;;;2.67;100.00
66880;BME280;72009;51.392;10.234;2024-01-30T00:53:26;99477.31;;;2.66;100.00
66880;BME280;72009;51.392;10.234;2024-01-30T00:53:46;99476.28;;;2.67;100.00
66880;BME280;72009;51.392;10.234;2024-01-30T00:54:07;99473.78;;;2.66;100.00
66880;BME280;72009;51.392;10.234;2024-01-30T00:54:27;99472.94;;;2.65;100.00
66880;BME280;72009;51.392;10.234;2024-01-30T00:54:47;99471.28;;;2.64;100.00
66880;BME280;72009;51.392;10.234;2024-01-30T00:55:08;99476.72;;;2.64;100.00
66880;BME280;72009;51.392;10.234;2024-01-30T00:55:28;99472.09;;;2.65;100.00
66880;BME280;72009;51.392;10.234;2024-01-30T00:55:48;99476.50;;;2.66;100.00
66880;BME280;72009;51.392;10.234;2024-01-30T00:56:09;99476.50;;;2.66;100.00
66880;BME280;72009;51.392;10.234;2024-01-30T00:56:29;99471.28;;;2.64;100.00
66880;BME280;72009;51.392;10.234;2024-01-30T00:56:49;99468.56;;;2.64;100.00
66880;BME280;72009;51.392;10.234;2024-01-30T00:57:09;99474.81;;;2.65;100.00
66880;BME280;72009;51.392;10.234;2024-01-30T00:57:30;99468.56;;;2.64;100.00
66880;BME280;72009;51.392;10.234;2024-01-30T00:57:50;99473.16;;;2.64;100.00
66880;BME280;72009;51.392;10.234;2024-01-30T00:58:10;99471.28;;;2.64;100.00
66880;BME280;72009;51.392;10.234;2024-01-30T00:58:30;99466.91;;;2.63;100.00
66880;BME280;72009;51.392;10.234;2024-01-30T00:58:51;99480.25;;;2.65;100.00
66880;BME280;72009;51.392;10.234;2024-01-30T00:59:11;99471.28;;;2.64;100.00
66880;BME280;72009;51.392;10.234;2024-01-30T00:59:31;99463.16;;;2.64;100.00
66880;BME280;72009;51.392;10.234;2024-01-30T00:59:52;99465.63;;;2.66;100.00
66880;BME280;72009;51.392;10.234;2024-01-30T01:00:13;99472.72;;;2.67;100.00
66880;BME280;72009;51.392;10.234;2024-01-30T01:00:33;99468.13;;;2.67;100.00
66880;BME280;72009;51.392;10.234;2024-01-30T01:00:53;99470.63;;;2.69;100.00
66880;BME280;72009;51.392;10.234;2024-01-30T01:01:14;99470.38;;;2.71;100.00
66880;BME280;72009;51.392;10.234;2024-01-30T01:01:34;99467.44;;;2.72;100.00
66880;BME280;72009;51.392;10.234;2024-01-30T01:01:54;99467.44;;;2.72;100.00
66880;BME280;72009;51.392;10.234;2024-01-30T01:02:15;99472.66;;;2.74;100.00
66880;BME280;72009;51.392;10.234;2024-01-30T01:02:35;99478.69;;;2.76;100.00
66880;BME280;72009;51.392;10.234;2024-01-30T01:02:56;99467.81;;;2.76;100.00
66880;BME280;72009;51.392;10.234;2024-01-30T01:03:16;99473.25;;;2.76;100.00
66880;BME280;72009;51.392;10.234;2024-01-30T01:03:36;99473.03;;;2.77;100.00
66880;BME280;72009;51.392;10.234;2024-01-30T01:03:56;99472.19;;;2.77;100.00
66880;BME280;72009;51.392;10.234;2024-01-30T01:04:17;99471.16;;;2.78;100.00
66880;BME280;72009;51.392;10.234;2024-01-30T01:04:37;99469.25;;;2.78;100.00
66880;BME280;72009;51.392;10.234;2024-01-30T01:04:57;99470.94;;;2.79;100.00
66880;BME280;72009;51.392;10.234;2024-01-30T01:05:17;99474.47;;;2.80;100.00
66880;BME280;72009;51.392;10.234;2024-01-30T01:05:38;99470.94;;;2.79;100.00
66880;BME280;72009;51.392;10.234;2024-01-30T01:05:58;99472.78;;;2.79;100.00
66880;BME280;72009;51.392;10.234;2024-01-30T01:06:18;99474.47;;;2.80;100.00
66880;BME280;72009;51.392;10.234;2024-01-30T01:06:39;99469.84;;;2.80;100.00
66880;BME280;72009;51.392;10.234;2024-01-30T01:06:59;99467.13;;;2.80;100.00
66880;BME280;72009;51.392;10.234;2024-01-30T01:07:19;99470.69;;;2.81;100.00
66880;BME280;72009;51.392;10.234;2024-01-30T01:07:39;99470.69;;;2.81;100.00
66880;BME280;72009;51.392;10.234;2024-01-30T01:08:00;99469.63;;;2.82;100.00
66880;BME280;72009;51.392;10.234;2024-01-30T01:08:20;99467.75;;;2.82;100.00
66880;BME280;72009;51.392;10.234;2024-01-30T01:08:40;99474.00;;;2.83;100.00
66880;BME280;72009;51.392;10.234;2024-01-30T01:09:00;99469.44;;;2.83;100.00
66880;BME280;72009;51.392;10.234;2024-01-30T01:09:21;99477.34;;;2.85;100.00
66880;BME280;72009;51.392;10.234;2024-01-30T01:09:41;99470.25;;;2.84;100.00
66880;BME280;72009;51.392;10.234;2024-01-30T01:10:02;99467.53;;;2.84;100.00
66880;BME280;72009;51.392;10.234;2024-01-30T01:10:22;99473.78;;;2.84;100.00
66880;BME280;72009;51.392;10.234;2024-01-30T01:10:42;99470.25;;;2.84;100.00
66880;BME280;72009;51.392;10.234;2024-01-30T01:11:03;99470.25;;;2.84;100.00
66880;BME280;72009;51.392;10.234;2024-01-30T01:11:23;99472.97;;;2.84;100.00
66880;BME280;72009;51.392;10.234;2024-01-30T01:11:43;99465.63;;;2.84;100.00
66880;BME280;72009;51.392;10.234;2024-01-30T01:12:04;99464.81;;;2.84;100.00
66880;BME280;72009;51.392;10.234;2024-01-30T01:12:24;99470.84;;;2.86;100.00
66880;BME280;72009;51.392;10.234;2024-01-30T01:12:45;99470.84;;;2.86;100.00
66880;BME280;72009;51.392;10.234;2024-01-30T01:13:05;99463.53;;;2.86;100.00
66880;BME280;72009;51.392;10.234;2024-01-30T01:13:26;99469.78;;;2.87;100.00
66880;BME280;72009;51.392;10.234;2024-01-30T01:13:46;99473.31;;;2.87;100.00
66880;BME280;72009;51.392;10.234;2024-01-30T01:14:06;99471.91;;;2.85;100.00
66880;BME280;72009;51.392;10.234;2024-01-30T01:14:26;99468.13;;;2.86;100.00
66880;BME280;72009;51.392;10.234;2024-01-30T01:14:47;99471.47;;;2.88;100.00
66880;BME280;72009;51.392;10.234;2024-01-30T01:15:08;99473.31;;;2.87;100.00
66880;BME280;72009;51.392;10.234;2024-01-30T01:15:28;99474.19;;;2.88;100.00
66880;BME280;72009;51.392;10.234;2024-01-30T01:15:48;99473.09;;;2.89;100.00
66880;BME280;72009;51.392;10.234;2024-01-30T01:16:09;99476.91;;;2.88;100.00
66880;BME280;72009;51.392;10.234;2024-01-30T01:16:29;99477.72;;;2.89;100.00
66880;BME280;72009;51.392;10.234;2024-01-30T01:16:49;99477.72;;;2.89;100.00
66880;BME280;72009;51.392;10.234;2024-01-30T01:17:10;99471.22;;;2.90;100.00
66880;BME280;72009;51.392;10.234;2024-01-30T01:17:30;99467.66;;;2.89;100.00
66880;BME280;72009;51.392;10.234;2024-01-30T01:17:50;99472.28;;;2.89;100.00
66880;BME280;72009;51.392;10.234;2024-01-30T01:18:10;99463.31;;;2.88;100.00
66880;BME280;72009;51.392;10.234;2024-01-30T01:18:31;99473.31;;;2.87;100.00
66880;BME280;72009;51.392;10.234;2024-01-30T01:18:51;99468.97;;;2.86;100.00
66880;BME280;72009;51.392;10.234;2024-01-30T01:19:11;99467.31;;;2.85;100.00
66880;BME280;72009;51.392;10.234;2024-01-30T01:19:32;99471.69;;;2.86;100.00
66880;BME280;72009;51.392;10.234;2024-01-30T01:19:52;99468.13;;;2.86;100.00
66880;BME280;72009;51.392;10.234;2024-01-30T01:20:12;99464.81;;;2.84;100.00
66880;BME280;72009;51.392;10.234;2024-01-30T01:20:32;99462.09;;;2.84;100.00
66880;BME280;72009;51.392;10.234;2024-01-30T01:20:53;99463.75;;;2.85;100.00
66880;BME280;72009;51.392;10.234;2024-01-30T01:21:13;99460.81;;;2.86;100.00
66880;BME280;72009;51.392;10.234;2024-01-30T01:21:33;99464.34;;;2.87;100.00
66880;BME280;72009;51.392;10.234;2024-01-30T01:21:54;99466.25;;;2.86;100.00
66880;BME280;72009;51.392;10.234;2024-01-30T01:22:15;99461.63;;;2.87;100.00
66880;BME280;72009;51.392;10.234;2024-01-30T01:22:36;99461.63;;;2.87;100.00
66880;BME280;72009;51.392;10.234;2024-01-30T01:22:56;99466.03;;;2.88;100.00
66880;BME280;72009;51.392;10.234;2024-01-30T01:23:16;99463.09;;;2.90;100.00
66880;BME280;72009;51.392;10.234;2024-01-30T01:23:37;99457.66;;;2.90;100.00
66880;BME280;72009;51.392;10.234;2024-01-30T01:23:57;99453.84;;;2.91;100.00
66880;BME280;72009;51.392;10.234;2024-01-30T01:24:17;99462.84;;;2.91;100.00
66880;BME280;72009;51.392;10.234;2024-01-30T01:24:38;99455.53;;;2.92;100.00
66880;BME280;72009;51.392;10.234;2024-01-30T01:24:58;99448.19;;;2.92;100.00
66880;BME280;72009;51.392;10.234;2024-01-30T01:25:19;99449.84;;;2.93;100.00
66880;BME280;72009;51.392;10.234;2024-01-30T01:25:39;99446.09;;;2.94;100.00
66880;BME280;72009;51.392;10.234;2024-01-30T01:25:59;99444.19;;;2.95;100.00
66880;BME280;72009;51.392;10.234;2024-01-30T01:26:19;99443.16;;;2.96;100.00
66880;BME280;72009;51.392;10.234;2024-01-30T01:26:40;99443.16;;;2.96;100.00
66880;BME280;72009;51.392;10.234;2024-01-30T01:27:00;99446.44;;;2.98;100.00
66880;BME280;72009;51.392;10.234;2024-01-30T01:27:20;99445.63;;;2.97;100.00
66880;BME280;72009;51.392;10.234;2024-01-30T01:27:41;99445.63;;;2.97;100.00
66880;BME280;72009;51.392;10.234;2024-01-30T01:28:01;99439.38;;;2.97;100.00
66880;BME280;72009;51.392;10.234;2024-01-30T01:28:21;99444.81;;;2.97;100.00
66880;BME280;72009;51.392;10.234;2024-01-30T01:28:42;99435.81;;;2.96;100.00
66880;BME280;72009;51.392;10.234;2024-01-30T01:29:02;99441.03;;;2.98;100.00
66880;BME280;72009;51.392;10.234;2024-01-30T01:29:22;99447.53;;;2.97;100.00
66880;BME280;72009;51.392;10.234;2024-01-30T01:29:42;99440.19;;;2.97;100.00
66880;BME280;72009;51.392;10.234;2024-01-30T01:30:03;99439.38;;;2.97;100.00
66880;BME280;72009;51.392;10.234;2024-01-30T01:30:23;99447.53;;;2.97;100.00
66880;BME280;72009;51.392;10.234;2024-01-30T01:30:44;99446.69;;;2.96;100.00
66880;BME280;72009;51.392;10.234;2024-01-30T01:31:04;99444.19;;;2.95;100.00
66880;BME280;72009;51.392;10.234;2024-01-30T01:31:24;99449.63;;;2.95;100.00
66880;BME280;72009;51.392;10.234;2024-01-30T01:31:45;99446.91;;;2.95;100.00
66880;BME280;72009;51.392;10.234;2024-01-30T01:32:05;99443.38;;;2.94;100.00
66880;BME280;72009;51.392;10.234;2024-01-30T01:32:25;99448.81;;;2.94;100.00
66880;BME280;72009;51.392;10.234;2024-01-30T01:32:46;99451.53;;;2.94;100.00
66880;BME280;72009;51.392;10.234;2024-01-30T01:33:06;99452.34;;;2.95;100.00
66880;BME280;72009;51.392;10.234;2024-01-30T01:33:26;99459.69;;;2.94;100.00
66880;BME280;72009;51.392;10.234;2024-01-30T01:33:46;99459.69;;;2.94;100.00
66880;BME280;72009;51.392;10.234;2024-01-30T01:34:07;99465.13;;;2.94;100.00
66880;BME280;72009;51.392;10.234;2024-01-30T01:34:27;99457.78;;;2.95;100.00
66880;BME280;72009;51.392;10.234;2024-01-30T01:34:47;99462.16;;;2.96;100.00
66880;BME280;72009;51.392;10.234;2024-01-30T01:35:07;99466.78;;;2.95;100.00
66880;BME280;72009;51.392;10.234;2024-01-30T01:35:28;99457.56;;;2.96;100.00
66880;BME280;72009;51.392;10.234;2024-01-30T01:35:48;99461.94;;;2.97;100.00
66880;BME280;72009;51.392;10.234;2024-01-30T01:36:08;99460.91;;;2.98;100.00
66880;BME280;72009;51.392;10.234;2024-01-30T01:36:28;99451.66;;;2.99;100.00
66880;BME280;72009;51.392;10.234;2024-01-30T01:36:49;99456.88;;;3.01;100.00
66880;BME280;72009;51.392;10.234;2024-01-30T01:37:10;99455.81;;;3.02;100.00
66880;BME280;72009;51.392;10.234;2024-01-30T01:37:30;99457.50;;;3.03;100.00
66880;BME280;72009;51.392;10.234;2024-01-30T01:37:51;99463.75;;;3.03;100.00
66880;BME280;72009;51.392;10.234;2024-01-30T01:38:11;99466.25;;;3.05;100.00
66880;BME280;72009;51.392;10.234;2024-01-30T01:38:32;99463.53;;;3.05;100.00
66880;BME280;72009;51.392;10.234;2024-01-30T01:38:52;99458.91;;;3.05;100.00
66880;BME280;72009;51.392;10.234;2024-01-30T01:39:12;99460.56;;;3.07;100.00
66880;BME280;72009;51.392;10.234;2024-01-30T01:39:32;99456.81;;;3.08;100.00
66880;BME280;72009;51.392;10.234;2024-01-30T01:39:53;99463.06;;;3.08;100.00
66880;BME280;72009;51.392;10.234;2024-01-30T01:40:13;99463.06;;;3.08;100.00
66880;BME280;72009;51.392;10.234;2024-01-30T01:40:33;99463.69;;;3.10;100.00
66880;BME280;72009;51.392;10.234;2024-01-30T01:40:54;99463.47;;;3.12;100.00
66880;BME280;72009;51.392;10.234;2024-01-30T01:41:14;99451.72;;;3.11;100.00
66880;BME280;72009;51.392;10.234;2024-01-30T01:41:34;99456.94;;;3.13;100.00
66880;BME280;72009;51.392;10.234;2024-01-30T01:41:55;99458.59;;;3.14;100.00
66880;BME280;72009;51.392;10.234;2024-01-30T01:42:15;99455.06;;;3.13;100.00
66880;BME280;72009;51.392;10.234;2024-01-30T01:42:35;99457.56;;;3.15;100.00
66880;BME280;72009;51.392;10.234;2024-01-30T01:42:56;99456.47;;;3.16;100.00
66880;BME280;72009;51.392;10.234;2024-01-30T01:43:16;99463.59;;;3.17;100.00
66880;BME280;72009;51.392;10.234;2024-01-30T01:43:36;99463.59;;;3.17;100.00
66880;BME280;72009;51.392;10.234;2024-01-30T01:43:57;99462.53;;;3.18;100.00
66880;BME280;72009;51.392;10.234;2024-01-30T01:44:18;99455.19;;;3.18;100.00
66880;BME280;72009;51.392;10.234;2024-01-30T01:44:38;99469.41;;;3.20;100.00
66880;BME280;72009;51.392;10.234;2024-01-30T01:44:58;99459.34;;;3.21;100.00
66880;BME280;72009;51.392;10.234;2024-01-30T01:45:19;99462.09;;;3.21;100.00
66880;BME280;72009;51.392;10.234;2024-01-30T01:45:40;99464.56;;;3.22;100.00
66880;BME280;72009;51.392;10.234;2024-01-30T01:46:00;99461.03;;;3.22;100.00
66880;BME280;72009;51.392;10.234;2024-01-30T01:46:21;99465.63;;;3.21;100.00
66880;BME280;72009;51.392;10.234;2024-01-30T01:46:41;99461.84;;;3.22;100.00